createdAt,value
2023-05-17T00:02:08.246Z,67.92
2023-05-17T00:04:35.237Z,68.48
2023-05-17T00:07:02.216Z,67.68
2023-05-17T00:09:29.174Z,68.00
2023-05-17T00:11:56.096Z,68.61
2023-05-17T00:14:23.059Z,67.99
2023-05-17T00:16:50.534Z,68.72
2023-05-17T00:19:17.451Z,68.05
2023-05-17T00:21:44.633Z,68.13
2023-05-17T00:24:11.487Z,68.54
2023-05-17T00:26:38.473Z,69.80
2023-05-17T00:29:05.447Z,69.62
2023-05-17T00:31:32.473Z,70.20
2023-05-17T00:33:59.416Z,70.30
2023-05-17T00:36:26.314Z,69.75
2023-05-17T00:38:53.309Z,70.28
2023-05-17T00:41:20.365Z,70.12
2023-05-17T00:43:47.232Z,70.94
2023-05-17T00:46:14.193Z,70.96
2023-05-17T00:48:41.357Z,70.56
2023-05-17T00:51:08.912Z,70.45
2023-05-17T00:53:37.188Z,70.51
2023-05-17T00:56:05.274Z,70.84
2023-05-17T00:58:32.262Z,71.15
2023-05-17T01:01:00.045Z,70.23
2023-05-17T01:03:27.819Z,70.59
2023-05-17T01:05:55.727Z,70.71
2023-05-17T01:08:22.623Z,70.43
2023-05-17T01:11:22.690Z,71.46
2023-05-17T01:14:01.299Z,71.80
2023-05-17T01:16:48.913Z,71.46
2023-05-17T01:20:07.522Z,71.74
2023-05-17T01:23:05.436Z,71.68
2023-05-17T01:25:47.285Z,72.30
2023-05-17T01:28:16.678Z,72.22
2023-05-17T01:30:47.596Z,71.33
2023-05-17T01:33:16.855Z,71.74
2023-05-17T01:35:43.803Z,71.62
2023-05-17T01:38:10.911Z,71.61
2023-05-17T01:41:06.510Z,71.70
2023-05-17T01:44:01.224Z,71.73
2023-05-17T01:46:40.794Z,72.00
2023-05-17T01:49:35.352Z,72.60
2023-05-17T01:52:13.980Z,71.80
2023-05-17T01:55:04.891Z,71.92
2023-05-17T01:57:36.693Z,72.13
2023-05-17T02:00:09.150Z,72.03
2023-05-17T02:02:36.889Z,72.18
2023-05-17T02:05:04.208Z,72.76
2023-05-17T02:07:31.191Z,73.65
2023-05-17T02:09:58.153Z,72.98
2023-05-17T02:12:25.543Z,72.48
2023-05-17T02:14:52.568Z,73.79
2023-05-17T02:17:19.494Z,73.49
2023-05-17T02:19:46.497Z,73.97
2023-05-17T02:22:13.525Z,73.48
2023-05-17T02:24:40.467Z,73.45
2023-05-17T02:27:07.654Z,73.98
2023-05-17T02:29:34.710Z,73.91
2023-05-17T02:32:01.664Z,74.69
2023-05-17T02:34:28.605Z,75.02
2023-05-17T02:36:55.622Z,74.50
2023-05-17T02:39:22.507Z,74.84
2023-05-17T02:41:49.452Z,74.85
2023-05-17T02:44:16.450Z,74.85
2023-05-17T02:46:43.354Z,74.80
2023-05-17T02:49:10.520Z,75.01
2023-05-17T02:51:37.386Z,75.43
2023-05-17T02:54:04.525Z,75.60
2023-05-17T02:56:31.455Z,75.46
2023-05-17T02:59:01.141Z,75.61
2023-05-17T03:01:28.543Z,75.29
2023-05-17T03:03:55.612Z,75.30
2023-05-17T03:06:22.720Z,75.67
2023-05-17T03:08:49.665Z,75.39
2023-05-17T03:11:17.258Z,75.83
2023-05-17T03:13:46.321Z,76.29
2023-05-17T03:16:13.277Z,76.17
2023-05-17T03:18:40.466Z,76.29
2023-05-17T03:21:07.557Z,76.14
2023-05-17T03:23:34.487Z,76.08
2023-05-17T03:26:01.498Z,76.24
2023-05-17T03:28:29.764Z,76.69
2023-05-17T03:30:56.846Z,76.68
2023-05-17T03:33:23.805Z,76.46
2023-05-17T03:35:51.293Z,76.59
2023-05-17T03:38:18.222Z,77.05
2023-05-17T03:40:45.267Z,76.55
2023-05-17T03:43:12.310Z,77.06
2023-05-17T03:45:39.232Z,77.09
2023-05-17T03:48:06.485Z,76.86
2023-05-17T03:50:34.189Z,76.89
2023-05-17T03:53:01.134Z,76.92
2023-05-17T03:55:28.248Z,77.12
2023-05-17T03:57:55.400Z,77.15
2023-05-17T04:00:23.202Z,77.18
2023-05-17T04:02:52.150Z,77.31
2023-05-17T04:05:19.986Z,77.34
2023-05-17T04:07:46.946Z,77.57
2023-05-17T04:10:13.917Z,76.98
2023-05-17T04:12:41.431Z,76.17
2023-05-17T04:15:09.096Z,76.21
2023-05-17T04:17:36.338Z,74.92
2023-05-17T04:20:06.583Z,75.82
2023-05-17T04:22:33.874Z,74.32
2023-05-17T04:25:01.343Z,75.05
2023-05-17T04:27:28.958Z,74.12
2023-05-17T04:29:56.294Z,73.81
2023-05-17T04:32:24.138Z,72.34
2023-05-17T04:34:52.052Z,72.00
2023-05-17T04:37:19.283Z,70.55
2023-05-17T04:39:46.136Z,70.56
2023-05-17T04:42:13.246Z,69.50
2023-05-17T04:44:40.543Z,69.97
2023-05-17T04:47:08.130Z,69.40
2023-05-17T04:49:35.106Z,68.77
2023-05-17T04:52:03.522Z,69.75
2023-05-17T04:54:32.298Z,69.14
2023-05-17T04:56:59.309Z,67.57
2023-05-17T04:59:26.240Z,66.73
2023-05-17T05:01:53.160Z,67.21
2023-05-17T05:04:20.411Z,65.90
2023-05-17T05:06:47.420Z,65.05
2023-05-17T05:09:14.770Z,64.71
2023-05-17T05:11:41.733Z,64.73
2023-05-17T05:14:08.912Z,63.36
2023-05-17T05:16:36.449Z,63.45
2023-05-17T05:19:03.731Z,62.79
2023-05-17T05:21:31.158Z,61.85
2023-05-17T05:23:58.143Z,61.03
2023-05-17T05:26:25.017Z,61.36
2023-05-17T05:28:51.952Z,61.02
2023-05-17T05:31:18.852Z,60.26
2023-05-17T05:33:45.918Z,58.91
2023-05-17T05:36:13.007Z,58.61
2023-05-17T05:38:39.892Z,57.79
2023-05-17T05:41:06.897Z,57.24
2023-05-17T05:43:35.986Z,56.63
2023-05-17T05:46:03.373Z,55.50
2023-05-17T05:48:30.371Z,54.99
2023-05-17T05:50:57.414Z,54.19
2023-05-17T05:53:24.358Z,52.55
2023-05-17T05:55:51.388Z,51.98
2023-05-17T05:58:18.337Z,51.65
2023-05-17T06:00:45.353Z,50.24
2023-05-17T06:03:12.338Z,49.33
2023-05-17T06:05:40.329Z,48.78
2023-05-17T06:08:07.358Z,48.55
2023-05-17T06:10:34.384Z,47.36
2023-05-17T06:13:01.446Z,47.10
2023-05-17T06:15:28.882Z,46.10
2023-05-17T06:17:55.957Z,46.26
2023-05-17T06:20:23.250Z,45.61
2023-05-17T06:22:50.146Z,44.66
2023-05-17T06:25:17.135Z,43.29
2023-05-17T06:27:44.065Z,41.88
2023-05-17T06:30:11.792Z,42.37
2023-05-17T06:32:38.816Z,41.43
2023-05-17T06:35:06.964Z,40.39
2023-05-17T06:37:33.921Z,39.89
2023-05-17T06:40:15.550Z,39.49
2023-05-17T06:42:43.820Z,39.09
2023-05-17T06:45:11.433Z,39.17
2023-05-17T06:47:38.360Z,38.45
2023-05-17T06:50:07.358Z,37.43
2023-05-17T06:52:35.136Z,37.06
2023-05-17T06:55:02.134Z,36.53
2023-05-17T06:57:29.128Z,36.82
2023-05-17T06:59:56.087Z,38.01
2023-05-17T07:02:23.075Z,38.49
2023-05-17T07:04:50.120Z,38.05
2023-05-17T07:07:17.157Z,38.03
2023-05-17T07:09:44.170Z,37.11
2023-05-17T07:12:11.085Z,35.78
2023-05-17T07:14:38.081Z,35.04
2023-05-17T07:17:05.096Z,33.14
2023-05-17T07:19:32.148Z,31.84
2023-05-17T07:21:59.131Z,32.16
2023-05-17T07:24:26.146Z,31.23
2023-05-17T07:26:53.050Z,30.87
2023-05-17T07:29:20.066Z,31.31
2023-05-17T07:31:46.914Z,30.80
2023-05-17T07:34:14.503Z,31.28
2023-05-17T07:36:41.547Z,30.82
2023-05-17T07:39:09.181Z,32.04
2023-05-17T07:41:36.973Z,31.64
2023-05-17T07:44:03.899Z,31.65
2023-05-17T07:46:30.872Z,31.63
2023-05-17T07:48:58.860Z,31.80
2023-05-17T07:51:26.373Z,31.72
2023-05-17T07:53:53.504Z,30.29
2023-05-17T07:56:20.522Z,28.63
2023-05-17T07:58:47.461Z,27.59
2023-05-17T08:01:14.413Z,29.53
2023-05-17T08:03:47.799Z,30.21
2023-05-17T08:06:18.718Z,30.37
2023-05-17T08:08:45.733Z,30.52
2023-05-17T08:11:14.186Z,28.92
2023-05-17T08:13:41.599Z,28.99
2023-05-17T08:16:14.220Z,28.39
2023-05-17T08:18:44.275Z,28.82
2023-05-17T08:21:11.711Z,29.14
2023-05-17T08:23:41.466Z,29.65
2023-05-17T08:26:08.455Z,30.11
2023-05-17T08:28:35.474Z,30.69
2023-05-17T08:31:04.157Z,32.56
2023-05-17T08:33:31.271Z,33.84
2023-05-17T08:36:01.288Z,36.73
2023-05-17T08:38:28.275Z,38.59
2023-05-17T08:40:56.483Z,40.48
2023-05-17T08:43:26.886Z,37.58
2023-05-17T08:45:57.925Z,34.91
2023-05-17T08:48:27.546Z,32.50
2023-05-17T08:50:57.972Z,29.42
2023-05-17T08:53:25.701Z,28.27
2023-05-17T08:56:00.669Z,26.66
2023-05-17T08:58:34.177Z,26.56
2023-05-17T09:01:09.768Z,26.38
2023-05-17T09:03:40.366Z,26.23
2023-05-17T09:06:09.909Z,26.85
2023-05-17T09:08:38.030Z,29.04
2023-05-17T09:11:05.254Z,28.56
2023-05-17T09:13:32.231Z,26.74
2023-05-17T09:15:59.196Z,25.38
2023-05-17T09:18:33.173Z,25.65
2023-05-17T09:21:04.780Z,26.08
2023-05-17T09:23:35.850Z,28.60
2023-05-17T09:26:10.247Z,30.64
2023-05-17T09:28:42.362Z,32.53
2023-05-17T09:31:10.662Z,33.99
2023-05-17T09:33:46.807Z,36.12
2023-05-17T09:36:24.061Z,36.72
2023-05-17T09:39:05.634Z,37.17
2023-05-17T09:41:41.468Z,38.68
2023-05-17T09:44:13.103Z,39.00
2023-05-17T09:46:48.906Z,39.82
2023-05-17T09:49:17.668Z,40.05
2023-05-17T09:51:48.061Z,40.30
2023-05-17T09:54:15.069Z,41.32
2023-05-17T09:56:42.204Z,41.49
2023-05-17T09:59:14.816Z,41.98
2023-05-17T10:01:44.929Z,40.57
2023-05-17T10:04:13.819Z,37.26
2023-05-17T10:06:48.572Z,34.18
2023-05-17T10:09:22.233Z,33.56
2023-05-17T10:11:53.104Z,32.07
2023-05-17T10:14:27.918Z,31.91
2023-05-17T10:16:56.285Z,32.43
2023-05-17T10:19:25.756Z,33.22
2023-05-17T10:21:54.796Z,34.47
2023-05-17T10:24:23.336Z,35.38
2023-05-17T10:26:51.208Z,36.75
2023-05-17T10:29:20.986Z,36.69
2023-05-17T10:31:51.196Z,38.07
2023-05-17T10:34:22.269Z,39.87
2023-05-17T10:36:50.391Z,39.44
2023-05-17T10:39:17.924Z,39.54
2023-05-17T10:41:48.633Z,39.86
2023-05-17T10:44:16.915Z,39.85
2023-05-17T10:46:58.111Z,41.48
2023-05-17T10:49:37.432Z,39.31
2023-05-17T10:52:20.299Z,39.50
2023-05-17T10:54:50.402Z,39.93
2023-05-17T10:57:49.166Z,39.84
2023-05-17T11:00:21.616Z,38.72
2023-05-17T11:02:49.191Z,37.89
2023-05-17T11:05:27.252Z,39.04
2023-05-17T11:08:17.368Z,38.75
2023-05-17T11:11:10.604Z,37.99
2023-05-17T11:13:57.968Z,38.00
2023-05-17T11:16:35.653Z,38.90
2023-05-17T11:19:12.681Z,39.15
2023-05-17T11:21:47.504Z,39.79
2023-05-17T11:24:27.148Z,40.25
2023-05-17T11:26:56.108Z,41.53
2023-05-17T11:29:30.062Z,40.73
2023-05-17T11:31:57.031Z,40.29
2023-05-17T11:34:25.530Z,40.26
2023-05-17T11:36:55.382Z,39.05
2023-05-17T11:39:26.319Z,40.07
2023-05-17T11:41:56.085Z,40.48
2023-05-17T11:44:30.702Z,41.03
2023-05-17T11:47:10.129Z,40.55
2023-05-17T11:49:40.638Z,40.61
2023-05-17T11:52:08.645Z,40.19
2023-05-17T11:54:38.485Z,39.93
2023-05-17T11:57:06.679Z,39.59
2023-05-17T11:59:40.091Z,40.85
2023-05-17T12:02:12.751Z,39.97
2023-05-17T12:04:42.522Z,39.93
2023-05-17T12:07:10.718Z,40.70
2023-05-17T12:09:40.648Z,41.07
2023-05-17T12:12:08.560Z,40.81
2023-05-17T12:14:40.895Z,40.53
2023-05-17T12:17:18.805Z,40.46
2023-05-17T12:19:45.943Z,40.43
2023-05-17T12:22:16.041Z,40.33
2023-05-17T12:24:45.439Z,40.21
2023-05-17T12:27:19.136Z,41.19
2023-05-17T12:29:49.028Z,41.41
2023-05-17T12:32:20.297Z,41.20
2023-05-17T12:34:50.949Z,40.74
2023-05-17T12:37:18.220Z,40.20
2023-05-17T12:39:45.274Z,39.44
2023-05-17T12:42:15.118Z,41.03
2023-05-17T12:44:42.343Z,40.98
2023-05-17T12:47:31.215Z,40.97
2023-05-17T12:50:03.470Z,41.77
2023-05-17T12:52:36.972Z,41.11
2023-05-17T12:55:10.407Z,39.73
2023-05-17T12:57:42.190Z,39.94
2023-05-17T13:00:30.194Z,40.35
2023-05-17T13:03:00.307Z,38.60
2023-05-17T13:05:30.476Z,37.93
2023-05-17T13:08:05.046Z,37.97
2023-05-17T13:10:34.299Z,37.84
2023-05-17T13:13:01.341Z,38.54
2023-05-17T13:15:35.710Z,37.57
2023-05-17T13:18:18.091Z,38.43
2023-05-17T13:20:54.974Z,39.12
2023-05-17T13:23:24.436Z,38.99
2023-05-17T13:25:54.445Z,39.65
2023-05-17T13:28:27.247Z,40.65
2023-05-17T13:30:54.571Z,41.37
2023-05-17T13:33:27.362Z,40.98
2023-05-17T13:35:54.295Z,41.26
2023-05-17T13:38:21.231Z,40.74
2023-05-17T13:40:48.334Z,40.73
2023-05-17T13:43:16.140Z,41.22
2023-05-17T13:45:43.423Z,41.01
2023-05-17T13:48:10.366Z,41.32
2023-05-17T13:50:38.464Z,41.32
2023-05-17T13:53:08.648Z,41.72
2023-05-17T13:55:39.608Z,42.10
2023-05-17T13:58:09.650Z,41.48
2023-05-17T14:00:38.652Z,42.03
2023-05-17T14:03:08.891Z,41.74
2023-05-17T14:05:38.805Z,42.23
2023-05-17T14:08:11.528Z,41.93
2023-05-17T14:10:41.374Z,42.46
2023-05-17T14:13:12.250Z,41.98
2023-05-17T14:15:48.671Z,41.32
2023-05-17T14:18:21.533Z,40.48
2023-05-17T14:20:48.665Z,41.29
2023-05-17T14:23:15.830Z,40.07
2023-05-17T14:25:51.496Z,41.15
2023-05-17T14:28:18.472Z,40.69
2023-05-17T14:30:45.644Z,39.94
2023-05-17T14:33:13.215Z,40.24
2023-05-17T14:35:42.614Z,40.56
2023-05-17T14:38:09.480Z,40.49
2023-05-17T14:40:38.737Z,40.08
2023-05-17T14:43:06.294Z,40.14
2023-05-17T14:45:33.373Z,40.53
2023-05-17T14:48:00.511Z,40.19
2023-05-17T14:50:27.915Z,40.48
2023-05-17T14:52:55.014Z,40.24
2023-05-17T14:55:22.123Z,40.08
2023-05-17T14:57:53.912Z,39.55
2023-05-17T15:00:24.689Z,40.36
2023-05-17T15:02:51.632Z,39.40
2023-05-17T15:05:18.760Z,39.46
2023-05-17T15:07:45.745Z,39.18
2023-05-17T15:10:15.637Z,39.93
2023-05-17T15:12:42.554Z,40.09
2023-05-17T15:15:10.349Z,40.20
2023-05-17T15:17:37.676Z,40.17
2023-05-17T15:20:05.478Z,39.02
2023-05-17T15:22:32.430Z,39.37
2023-05-17T15:25:02.541Z,40.69
2023-05-17T15:27:29.558Z,40.31
2023-05-17T15:29:56.466Z,39.55
2023-05-17T15:32:23.436Z,39.96
2023-05-17T15:34:50.552Z,40.16
2023-05-17T15:37:17.518Z,40.57
2023-05-17T15:39:44.529Z,40.35
2023-05-17T15:42:11.538Z,40.57
2023-05-17T15:44:38.434Z,39.63
2023-05-17T15:47:05.622Z,39.59
2023-05-17T15:49:32.634Z,40.51
2023-05-17T15:51:59.702Z,39.81
2023-05-17T15:54:26.694Z,40.07
2023-05-17T15:56:53.719Z,39.72
2023-05-17T15:59:20.700Z,39.53
2023-05-17T16:01:47.674Z,39.17
2023-05-17T16:04:14.697Z,39.54
2023-05-17T16:06:41.748Z,39.67
2023-05-17T16:09:08.998Z,39.39
2023-05-17T16:11:36.205Z,39.48
2023-05-17T16:14:03.206Z,39.22
2023-05-17T16:16:30.158Z,38.97
2023-05-17T16:18:57.940Z,39.05
2023-05-17T16:21:25.266Z,39.21
2023-05-17T16:23:52.432Z,39.49
2023-05-17T16:26:19.314Z,40.21
2023-05-17T16:28:46.366Z,40.29
2023-05-17T16:31:13.370Z,40.35
2023-05-17T16:33:41.515Z,40.68
2023-05-17T16:36:08.968Z,40.24
2023-05-17T16:38:35.876Z,41.07
2023-05-17T16:41:03.393Z,41.01
2023-05-17T16:43:31.216Z,40.13
2023-05-17T16:45:58.143Z,41.49
2023-05-17T16:48:25.082Z,40.81
2023-05-17T16:50:52.011Z,41.24
2023-05-17T16:53:19.167Z,40.45
2023-05-17T16:55:46.097Z,41.01
2023-05-17T16:58:13.112Z,40.69
2023-05-17T17:00:40.163Z,41.38
2023-05-17T17:03:09.623Z,40.65
2023-05-17T17:05:37.181Z,40.20
2023-05-17T17:08:04.196Z,40.24
2023-05-17T17:10:31.451Z,41.29
2023-05-17T17:12:58.539Z,41.28
2023-05-17T17:15:25.463Z,41.03
2023-05-17T17:17:52.417Z,40.80
2023-05-17T17:20:19.733Z,40.67
2023-05-17T17:22:46.854Z,41.19
2023-05-17T17:25:13.869Z,40.73
2023-05-17T17:27:40.842Z,40.70
2023-05-17T17:30:08.398Z,41.43
2023-05-17T17:32:35.620Z,40.31
2023-05-17T17:35:02.695Z,40.15
2023-05-17T17:37:29.618Z,39.89
2023-05-17T17:39:56.510Z,40.47
2023-05-17T17:42:23.358Z,40.18
2023-05-17T17:44:50.286Z,40.28
2023-05-17T17:47:17.368Z,40.84
2023-05-17T17:49:44.428Z,41.92
2023-05-17T17:52:11.306Z,40.45
2023-05-17T17:54:38.193Z,40.14
2023-05-17T17:57:05.354Z,40.01
2023-05-17T17:59:32.251Z,40.51
2023-05-17T18:02:02.089Z,40.64
2023-05-17T18:04:29.033Z,40.50
2023-05-17T18:06:56.334Z,41.06
2023-05-17T18:09:23.996Z,40.45
2023-05-17T18:11:50.928Z,40.96
2023-05-17T18:14:17.881Z,40.60
2023-05-17T18:16:45.125Z,40.87
2023-05-17T18:19:12.107Z,41.06
2023-05-17T18:21:39.038Z,41.20
2023-05-17T18:24:06.379Z,41.73
2023-05-17T18:26:33.224Z,41.97
2023-05-17T18:29:00.318Z,41.66
2023-05-17T18:31:27.265Z,41.68
2023-05-17T18:33:56.362Z,42.30
2023-05-17T18:36:24.125Z,42.29
2023-05-17T18:38:51.075Z,42.66
2023-05-17T18:41:17.992Z,42.54
2023-05-17T18:43:44.900Z,42.72
2023-05-17T18:46:13.048Z,42.86
2023-05-17T18:48:40.798Z,43.04
2023-05-17T18:51:07.880Z,42.88
2023-05-17T18:53:36.169Z,43.15
2023-05-17T18:56:03.124Z,43.75
2023-05-17T18:58:31.208Z,43.75
2023-05-17T19:00:58.329Z,44.40
2023-05-17T19:03:25.514Z,44.91
2023-05-17T19:05:52.371Z,44.92
2023-05-17T19:08:19.796Z,44.94
2023-05-17T19:10:46.819Z,45.06
2023-05-17T19:13:13.786Z,45.78
2023-05-17T19:15:41.765Z,45.59
2023-05-17T19:18:08.757Z,45.26
2023-05-17T19:20:35.860Z,45.49
2023-05-17T19:23:03.564Z,45.80
2023-05-17T19:25:30.487Z,45.75
2023-05-17T19:27:57.468Z,46.07
2023-05-17T19:30:24.348Z,45.75
2023-05-17T19:32:51.316Z,45.97
2023-05-17T19:35:18.316Z,46.65
2023-05-17T19:37:45.248Z,46.36
2023-05-17T19:40:14.687Z,46.88
2023-05-17T19:42:41.651Z,46.88
2023-05-17T19:45:10.931Z,46.17
2023-05-17T19:47:37.930Z,46.12
2023-05-17T19:50:05.325Z,46.53
2023-05-17T19:52:32.321Z,46.85
2023-05-17T19:54:59.392Z,46.76
2023-05-17T19:57:27.271Z,46.57
2023-05-17T19:59:54.231Z,46.50
2023-05-17T20:02:21.323Z,46.82
2023-05-17T20:04:48.442Z,47.12
2023-05-17T20:07:17.030Z,47.48
2023-05-17T20:09:44.131Z,47.36
2023-05-17T20:12:11.010Z,47.08
2023-05-17T20:14:38.158Z,47.16
2023-05-17T20:17:05.141Z,47.65
2023-05-17T20:19:32.182Z,47.77
2023-05-17T20:21:59.222Z,48.37
2023-05-17T20:24:28.857Z,48.15
2023-05-17T20:26:57.372Z,47.89
2023-05-17T20:29:24.260Z,47.92
2023-05-17T20:31:51.317Z,48.40
2023-05-17T20:34:18.385Z,48.42
2023-05-17T20:36:45.604Z,47.91
2023-05-17T20:39:15.043Z,48.06
2023-05-17T20:41:42.310Z,48.40
2023-05-17T20:44:09.178Z,48.99
2023-05-17T20:46:36.102Z,49.53
2023-05-17T20:49:02.961Z,49.21
2023-05-17T20:51:29.872Z,49.65
2023-05-17T20:53:56.784Z,49.94
2023-05-17T20:56:23.664Z,50.59
2023-05-17T20:58:50.666Z,49.77
2023-05-17T21:01:17.812Z,50.12
2023-05-17T21:03:44.973Z,51.23
2023-05-17T21:06:12.250Z,49.93
2023-05-17T21:08:39.281Z,49.72
2023-05-17T21:11:06.143Z,49.65
2023-05-17T21:13:33.115Z,49.99
2023-05-17T21:16:00.136Z,50.30
2023-05-17T21:18:27.143Z,50.66
2023-05-17T21:20:55.009Z,51.16
2023-05-17T21:23:21.913Z,50.87
2023-05-17T21:25:49.082Z,51.58
2023-05-17T21:28:16.135Z,51.94
2023-05-17T21:30:43.045Z,51.85
2023-05-17T21:33:10.007Z,51.91
2023-05-17T21:35:37.012Z,52.08
2023-05-17T21:38:03.966Z,52.15
2023-05-17T21:40:31.380Z,52.53
2023-05-17T21:42:58.636Z,52.92
2023-05-17T21:45:25.552Z,53.30
2023-05-17T21:47:52.522Z,53.26
2023-05-17T21:50:19.676Z,53.52
2023-05-17T21:52:46.596Z,53.49
2023-05-17T21:55:13.521Z,53.29
2023-05-17T21:57:43.101Z,53.13
2023-05-17T22:00:15.296Z,53.80
2023-05-17T22:02:45.820Z,53.34
2023-05-17T22:05:13.433Z,53.83
2023-05-17T22:07:40.617Z,53.77
2023-05-17T22:10:09.795Z,53.67
2023-05-17T22:12:38.084Z,54.56
2023-05-17T22:15:05.975Z,54.35
2023-05-17T22:17:43.001Z,54.94
2023-05-17T22:20:17.007Z,54.46
2023-05-17T22:22:44.107Z,54.63
2023-05-17T22:25:11.140Z,54.92
2023-05-17T22:27:37.993Z,54.74
2023-05-17T22:30:06.230Z,55.18
2023-05-17T22:32:33.194Z,55.67
2023-05-17T22:35:00.155Z,55.50
2023-05-17T22:37:27.135Z,55.38
2023-05-17T22:39:54.062Z,55.62
2023-05-17T22:42:21.376Z,55.72
2023-05-17T22:44:48.339Z,56.53
2023-05-17T22:47:15.408Z,56.16
2023-05-17T22:49:42.478Z,55.90
2023-05-17T22:52:10.939Z,56.70
2023-05-17T22:54:38.628Z,56.67
2023-05-17T22:57:06.329Z,55.93
2023-05-17T22:59:33.464Z,57.02
2023-05-17T23:02:01.919Z,56.81
2023-05-17T23:04:30.228Z,56.95
2023-05-17T23:07:09.672Z,57.49
2023-05-17T23:09:40.568Z,57.70
2023-05-17T23:12:13.826Z,56.87
2023-05-17T23:14:40.823Z,57.62
2023-05-17T23:17:08.541Z,57.11
2023-05-17T23:19:35.643Z,58.13
2023-05-17T23:22:04.026Z,58.08
2023-05-17T23:24:30.888Z,57.65
2023-05-17T23:26:57.848Z,58.70
2023-05-17T23:29:25.997Z,58.76
2023-05-17T23:31:53.627Z,59.22
2023-05-17T23:34:20.988Z,59.11
2023-05-17T23:36:47.964Z,59.73
2023-05-17T23:39:15.448Z,58.74
2023-05-17T23:41:42.303Z,59.61
2023-05-17T23:44:09.404Z,59.37
2023-05-17T23:46:36.499Z,59.62
2023-05-17T23:49:04.534Z,59.94
2023-05-17T23:51:34.566Z,60.59
2023-05-17T23:54:01.727Z,59.63
2023-05-17T23:56:28.688Z,60.83
2023-05-17T23:58:55.835Z,60.79
